createdAt,value
2023-01-21T00:00:25.107Z,4.90
2023-01-21T00:05:27.488Z,5.43
2023-01-21T00:10:29.395Z,6.10
2023-01-21T00:15:31.428Z,5.63
2023-01-21T00:20:33.577Z,5.22
2023-01-21T00:25:35.375Z,5.65
2023-01-21T00:30:37.316Z,4.85
2023-01-21T00:35:42.207Z,5.90
2023-01-21T00:40:44.288Z,5.60
2023-01-21T00:45:46.073Z,4.47
2023-01-21T00:50:47.841Z,6.47
2023-01-21T00:55:49.660Z,5.35
2023-01-21T01:01:00.000Z,6.25
2023-01-21T01:06:07.758Z,5.20
2023-01-21T01:16:14.642Z,6.22
2023-01-21T01:21:19.466Z,5.90
2023-01-21T01:26:22.327Z,6.25
2023-01-21T01:31:24.241Z,7.32
2023-01-21T01:36:26.221Z,7.88
2023-01-21T01:41:30.134Z,5.95
2023-01-21T01:46:34.997Z,6.95
2023-01-21T01:51:59.563Z,6.70
2023-01-21T01:57:05.529Z,6.07
2023-01-21T02:02:11.650Z,5.88
2023-01-21T02:07:14.169Z,6.53
2023-01-21T02:12:18.226Z,6.28
2023-01-21T02:18:00.143Z,7.45
2023-01-21T02:23:10.721Z,7.25
2023-01-21T02:28:41.950Z,6.65
2023-01-21T02:34:08.430Z,7.07
2023-01-21T02:39:21.982Z,7.43
2023-01-21T02:44:39.276Z,8.93
2023-01-21T02:50:29.122Z,7.33
2023-01-21T02:55:35.840Z,7.53
2023-01-21T03:01:07.894Z,6.82
2023-01-21T03:06:49.017Z,7.25
2023-01-21T03:12:11.758Z,7.35
2023-01-21T03:17:33.380Z,5.93
2023-01-21T03:22:37.780Z,6.05
2023-01-21T03:27:43.704Z,6.43
2023-01-21T03:32:49.762Z,5.65
2023-01-21T03:38:10.108Z,6.60
2023-01-21T03:43:12.013Z,5.63
2023-01-21T03:48:37.710Z,5.18
2023-01-21T03:53:43.265Z,5.60
2023-01-21T03:58:45.148Z,5.45
2023-01-21T04:03:47.039Z,5.65
2023-01-21T04:08:49.510Z,6.88
2023-01-21T04:13:51.367Z,6.03
2023-01-21T04:18:54.085Z,5.45
2023-01-21T04:23:55.845Z,5.55
2023-01-21T04:28:57.721Z,5.85
2023-01-21T04:33:59.538Z,5.57
2023-01-21T04:39:01.563Z,5.97
2023-01-21T04:44:03.422Z,5.22
2023-01-21T04:49:05.392Z,6.07
2023-01-21T04:54:07.189Z,6.50
2023-01-21T04:59:09.002Z,5.78
2023-01-21T05:04:10.805Z,5.50
2023-01-21T05:09:12.626Z,5.00
2023-01-21T05:14:14.447Z,5.95
2023-01-21T05:19:16.509Z,5.70
2023-01-21T05:24:18.858Z,5.47
2023-01-21T05:29:20.712Z,4.57
2023-01-21T05:34:22.526Z,5.35
2023-01-21T05:39:24.520Z,5.80
2023-01-21T05:44:26.390Z,5.20
2023-01-21T05:49:28.445Z,6.70
2023-01-21T05:54:30.524Z,5.35
2023-01-21T05:59:32.388Z,6.00
2023-01-21T06:04:34.232Z,6.40
2023-01-21T06:09:36.055Z,6.70
2023-01-21T06:14:37.820Z,6.88
2023-01-21T06:19:39.653Z,6.57
2023-01-21T06:24:41.724Z,7.28
2023-01-21T06:29:44.108Z,7.32
2023-01-21T06:34:46.760Z,7.13
2023-01-21T06:39:48.575Z,6.03
2023-01-21T06:44:50.298Z,7.07
2023-01-21T06:49:52.089Z,7.05
2023-01-21T06:54:53.932Z,7.05
2023-01-21T06:59:55.879Z,7.68
2023-01-21T07:04:59.161Z,7.38
2023-01-21T07:10:01.217Z,7.32
2023-01-21T07:15:03.111Z,6.68
2023-01-21T07:20:06.016Z,5.80
2023-01-21T07:25:08.767Z,7.63
2023-01-21T07:30:21.020Z,6.40
2023-01-21T07:35:23.000Z,7.57
2023-01-21T07:40:24.919Z,7.82
2023-01-21T07:45:27.039Z,7.75
2023-01-21T07:50:28.976Z,7.20
2023-01-21T07:55:31.304Z,6.53
2023-01-21T08:00:33.183Z,6.15
2023-01-21T08:05:35.087Z,8.30
2023-01-21T08:10:36.969Z,6.72
2023-01-21T08:15:38.791Z,6.18
2023-01-21T08:20:40.685Z,6.45
2023-01-21T08:25:42.470Z,6.75
2023-01-21T08:30:44.932Z,7.38
2023-01-21T08:35:46.818Z,7.38
2023-01-21T08:40:48.545Z,6.85
2023-01-21T08:45:50.535Z,7.03
2023-01-21T08:50:52.649Z,4.80
2023-01-21T08:56:02.192Z,6.68
2023-01-21T09:01:09.018Z,7.35
2023-01-21T09:06:11.400Z,7.33
2023-01-21T09:11:13.410Z,8.23
2023-01-21T09:16:18.367Z,8.18
2023-01-21T09:21:20.184Z,7.43
2023-01-21T09:26:24.089Z,7.45
2023-01-21T09:31:27.855Z,7.60
2023-01-21T09:36:31.982Z,6.80
2023-01-21T09:41:40.829Z,8.77
2023-01-21T09:46:51.433Z,8.07
2023-01-21T09:52:03.181Z,6.00
2023-01-21T09:57:31.939Z,9.38
2023-01-21T10:02:50.055Z,7.97
2023-01-21T10:13:56.890Z,8.75
2023-01-21T10:19:02.174Z,8.70
2023-01-21T10:24:14.437Z,9.70
2023-01-21T10:29:21.596Z,8.73
2023-01-21T10:34:23.497Z,8.25
2023-01-21T10:39:31.519Z,7.63
2023-01-21T10:44:48.429Z,8.75
2023-01-21T10:50:02.309Z,7.95
2023-01-21T10:55:42.696Z,7.47
2023-01-21T11:00:48.772Z,7.00
2023-01-21T11:05:50.969Z,7.90
2023-01-21T11:10:55.424Z,7.28
2023-01-21T11:16:00.187Z,7.75
2023-01-21T11:21:22.005Z,6.65
2023-01-21T11:26:28.719Z,7.28
2023-01-21T11:31:32.334Z,7.20
2023-01-21T11:36:34.562Z,8.18
2023-01-21T11:41:36.621Z,6.72
2023-01-21T11:46:41.718Z,6.95
2023-01-21T11:51:45.826Z,7.30
2023-01-21T11:57:18.861Z,6.82
2023-01-21T12:02:31.374Z,7.35
2023-01-21T12:07:37.873Z,6.22
2023-01-21T12:13:08.294Z,7.00
2023-01-21T12:18:33.147Z,7.28
2023-01-21T12:24:10.141Z,7.55
2023-01-21T12:29:30.865Z,6.18
2023-01-21T12:34:38.812Z,7.50
2023-01-21T12:39:42.835Z,6.20
2023-01-21T12:44:59.880Z,6.40
2023-01-21T12:50:16.617Z,6.60
2023-01-21T12:55:23.877Z,6.60
2023-01-21T13:00:40.187Z,5.80
2023-01-21T13:05:57.026Z,6.72
2023-01-21T13:11:20.403Z,7.72
2023-01-21T13:16:26.510Z,5.85
2023-01-21T13:21:42.074Z,7.13
2023-01-21T13:27:30.765Z,6.25
2023-01-21T13:32:47.270Z,5.60
2023-01-21T13:38:10.547Z,5.68
2023-01-21T13:43:44.234Z,5.43
2023-01-21T13:49:13.251Z,7.07
2023-01-21T13:54:26.783Z,6.47
2023-01-21T13:59:38.757Z,4.40
2023-01-21T14:04:49.602Z,5.85
2023-01-21T14:10:06.926Z,3.35
2023-01-21T14:15:14.541Z,5.67
2023-01-21T14:20:19.429Z,6.60
2023-01-21T14:25:42.216Z,7.07
2023-01-21T14:30:52.209Z,5.70
2023-01-21T14:36:03.740Z,6.28
2023-01-21T14:41:10.710Z,4.70
2023-01-21T14:46:27.757Z,7.43
2023-01-21T14:51:32.001Z,6.13
2023-01-21T14:56:35.416Z,5.47
2023-01-21T15:01:45.086Z,5.00
2023-01-21T15:06:49.204Z,5.60
2023-01-21T15:11:56.629Z,4.70
2023-01-21T15:16:58.641Z,5.40
2023-01-21T15:22:16.338Z,4.78
2023-01-21T15:27:25.919Z,4.85
2023-01-21T15:32:32.991Z,4.13
2023-01-21T15:37:39.835Z,4.10
2023-01-21T15:42:51.348Z,4.30
2023-01-21T15:48:40.949Z,4.43
2023-01-21T15:53:52.184Z,4.60
2023-01-21T15:59:21.930Z,3.63
2023-01-21T16:04:29.618Z,6.43
2023-01-21T16:09:43.575Z,4.05
2023-01-21T16:15:17.832Z,5.47
2023-01-21T16:20:20.309Z,6.20
2023-01-21T16:25:24.530Z,3.90
2023-01-21T16:30:29.133Z,4.20
2023-01-21T16:35:47.311Z,4.78
2023-01-21T16:45:55.425Z,4.07
2023-01-21T16:50:58.210Z,3.92
2023-01-21T16:56:00.206Z,2.08
2023-01-21T17:01:18.266Z,2.90
2023-01-21T17:11:24.775Z,3.35
2023-01-21T17:16:30.527Z,3.38
2023-01-21T17:21:51.231Z,3.60
2023-01-21T17:27:00.706Z,5.47
2023-01-21T17:32:25.814Z,4.05
2023-01-21T17:37:51.341Z,3.92
2023-01-21T17:42:54.142Z,3.85
2023-01-21T17:48:09.483Z,3.10
2023-01-21T17:53:28.663Z,2.70
2023-01-21T18:03:47.923Z,3.10
2023-01-21T18:08:51.037Z,2.90
2023-01-21T18:13:52.890Z,6.10
2023-01-21T18:18:55.158Z,2.95
2023-01-21T18:23:56.990Z,2.05
2023-01-21T18:28:58.939Z,2.33
2023-01-21T18:34:00.937Z,1.90
2023-01-21T18:39:02.791Z,1.90
2023-01-21T18:44:04.923Z,2.05
2023-01-21T18:49:11.583Z,2.22
2023-01-21T18:54:15.421Z,2.70
2023-01-21T18:59:20.209Z,2.90
2023-01-21T19:04:22.287Z,3.15
2023-01-21T19:09:25.207Z,4.97
2023-01-21T19:14:26.942Z,2.97
2023-01-21T19:19:28.872Z,3.17
2023-01-21T19:24:31.043Z,3.17
2023-01-21T19:29:33.265Z,2.70
2023-01-21T19:34:35.130Z,2.90
2023-01-21T19:39:36.928Z,1.80
2023-01-21T19:44:41.721Z,1.77
2023-01-21T19:49:43.808Z,2.47
2023-01-21T19:54:45.715Z,2.22
2023-01-21T19:59:49.616Z,2.45
2023-01-21T20:04:51.439Z,2.45
2023-01-21T20:09:53.310Z,2.38
2023-01-21T20:14:55.255Z,2.58
2023-01-21T20:19:57.136Z,2.00
2023-01-21T20:24:59.039Z,1.77
2023-01-21T20:30:15.744Z,2.83
2023-01-21T20:35:20.686Z,2.17
2023-01-21T20:40:25.581Z,2.38
2023-01-21T20:45:34.465Z,3.10
2023-01-21T20:50:36.345Z,2.42
2023-01-21T20:55:38.669Z,2.83
2023-01-21T21:00:41.179Z,2.30
2023-01-21T21:05:43.228Z,2.38
2023-01-21T21:10:46.005Z,2.80
2023-01-21T21:15:49.648Z,2.78
2023-01-21T21:20:52.113Z,3.15
2023-01-21T21:25:55.443Z,3.35
2023-01-21T21:30:57.382Z,2.38
2023-01-21T21:35:59.146Z,3.03
2023-01-21T21:41:21.012Z,2.50
2023-01-21T21:46:41.332Z,4.20
2023-01-21T21:51:45.823Z,3.33
2023-01-21T21:56:48.243Z,3.20
2023-01-21T22:01:50.066Z,3.30
2023-01-21T22:06:51.915Z,2.92
2023-01-21T22:11:53.875Z,3.15
2023-01-21T22:16:55.731Z,2.72
2023-01-21T22:21:57.534Z,3.25
2023-01-21T22:26:59.350Z,3.45
2023-01-21T22:32:03.905Z,2.58
2023-01-21T22:37:05.770Z,3.05
2023-01-21T22:42:07.612Z,2.85
2023-01-21T22:47:09.508Z,2.20
2023-01-21T22:52:11.372Z,2.97
2023-01-21T22:57:13.406Z,2.65
2023-01-21T23:02:15.300Z,2.45
2023-01-21T23:07:17.479Z,3.35
2023-01-21T23:12:19.233Z,2.90
2023-01-21T23:17:21.036Z,2.80
2023-01-21T23:22:22.805Z,2.60
2023-01-21T23:27:24.643Z,2.67
2023-01-21T23:32:26.441Z,3.35
2023-01-21T23:37:28.385Z,3.28
2023-01-21T23:42:32.113Z,2.85
2023-01-21T23:47:34.099Z,3.30
2023-01-21T23:52:40.263Z,2.45
2023-01-21T23:57:42.256Z,3.00
